Flight Track Log - Related Links

Times and Time Zones

All times are in EDT time to prevent confusion due to time zone crossing. See the SWA1643 flight status page for this flight to view local times or setup timezone preferences in your user account.


Time Position Orientation Groundspeed Altitude Reporting Facility
EDT Latitude Longitude Course Direction KTS MPH feet Rate Location/Type
Sat 11:46:31 PM 37.4333 -121.9667 345° North 229 264 5,000  Level Northern Cal TRACON
Sat 11:47:31 PM 37.4500 -121.9000 73° East 253 291 5,000 1,617 Level Northern Cal TRACON
Sat 11:49:18 PM 37.3506 -121.8067 143° Southeast 250 288 9,500 2,964 Climbing Oakland Center
Sat 11:50:19 PM 37.2867 -121.7344 138° Southeast 309 356 13,300 3,836 Climbing Oakland Center
Sat 11:51:20 PM 37.2106 -121.6528 139° Southeast 353 406 17,300 3,492 Climbing Oakland Center
Sat 11:52:21 PM 37.1311 -121.5656 139° Southeast 375 432 20,400 3,000 Climbing Oakland Center
Sat 11:53:22 PM 37.0367 -121.4639 139° Southeast 429 494 23,400 2,902 Climbing Oakland Center
Sat 11:54:23 PM 36.9433 -121.3583 138° Southeast 448 516 26,300 2,852 Climbing Oakland Center
Sat 11:55:24 PM 36.8444 -121.2542 140° Southeast 464 534 29,200 2,902 Climbing Oakland Center
Sat 11:56:25 PM 36.7456 -121.1478 139° Southeast 462 532 32,200 2,656 Climbing Oakland Center
Sat 11:57:26 PM 36.6494 -121.0417 138° Southeast 460 529 34,600 2,164 Climbing Oakland Center
Sat 11:58:27 PM 36.5486 -120.9414 141° Southeast 463 533 36,600 1,180 Climbing Oakland Center
Sat 11:59:28 PM 36.4367 -120.8592 149° Southeast 466 536 37,000 246 Climbing Oakland Center
Sun 12:00:29 AM 36.3272 -120.7769 149° Southeast 461 531 37,100 1,328 Climbing Oakland Center
Sun 12:01:30 AM 36.1967 -120.6797 149° Southeast 457 526 39,700 1,820 Climbing Oakland Center
Sun 12:02:31 AM 36.0869 -120.5981 149° Southeast 457 526 40,800 634 Climbing Oakland Center
Sun 12:03:33 AM 35.9761 -120.5147 149° Southeast 465 535 41,000 98 Climbing Oakland Center
Sun 12:04:33 AM 35.8644 -120.4306 149° Southeast 470 541 41,000  Level Oakland Center
Sun 12:05:34 AM 35.7522 -120.3483 149° Southeast 469 540 41,000  Level Oakland Center
Sun 12:06:35 AM 35.6408 -120.2650 149° Southeast 467 537 41,000  Level Oakland Center
Sun 12:07:36 AM 35.5278 -120.1814 149° Southeast 467 537 41,000  Level Oakland Center
Sun 12:08:37 AM 35.4206 -120.0836 143° Southeast 474 545 41,000  Level Oakland Center
Sun 12:09:38 AM 35.3222 -119.9719 137° Southeast 477 549 41,000  Level Oakland Center
Sun 12:10:39 AM 35.2244 -119.8617 137° Southeast 475 547 41,000  Level Oakland Center
Sun 12:11:35 AM 35.1289 -119.7528 137° Southeast 471 542 41,000  Level Los Angeles Center
Sun 12:12:37 AM 35.0322 -119.6442 137° Southeast 471 542 41,000  Level Los Angeles Center
Sun 12:13:38 AM 34.9364 -119.5347 137° Southeast 472 543 41,000  Level Los Angeles Center
Sun 12:14:51 AM 34.8392 -119.4267 138° Southeast 473 544 41,000  Level Los Angeles Center
Sun 12:15:52 AM 34.7228 -119.2958 137° Southeast 474 545 41,000  Level Los Angeles Center
Sun 12:16:54 AM 34.6250 -119.1894 138° Southeast 473 544 41,000  Level Los Angeles Center
Sun 12:17:55 AM 34.5289 -119.0844 138° Southeast 474 545 41,000  Level Los Angeles Center
Sun 12:18:56 AM 34.4314 -118.9769 138° Southeast 477 549 41,000  Level Los Angeles Center
Sun 12:19:57 AM 34.3336 -118.8711 138° Southeast 472 543 41,000 -492 Level Los Angeles Center
Sun 12:20:58 AM 34.2172 -118.7422 138° Southeast 472 543 40,000 -984 Descending Los Angeles Center
Sun 12:21:59 AM 34.1175 -118.6328 138° Southeast 480 552 39,000 -492 Descending Los Angeles Center
Sun 12:23:00 AM 34.0178 -118.5253 138° Southeast 481 554 39,000  Level Los Angeles Center
Sun 12:24:01 AM 33.9208 -118.4156 137° Southeast 478 550 39,000 -541 Level Los Angeles Center
Sun 12:25:02 AM 33.8381 -118.3061 132° Southeast 482 555 37,900 -2,410 Descending Los Angeles Center
Sun 12:26:03 AM 33.7289 -118.1689 134° Southeast 492 566 34,100 -3,639 Descending Los Angeles Center
Sun 12:27:04 AM 33.6344 -118.0494 134° Southeast 493 567 30,500 -3,246 Descending Los Angeles Center
Sun 12:28:05 AM 33.5428 -117.9328 133° Southeast 484 557 27,500 -2,852 Descending Los Angeles Center
Sun 12:29:06 AM 33.4550 -117.8222 134° Southeast 467 537 24,700 -2,754 Descending Los Angeles Center
Sun 12:30:07 AM 33.3731 -117.7175 133° Southeast 441 507 21,900 -2,656 Descending Los Angeles Center
Sun 12:31:08 AM 33.2947 -117.6208 134° Southeast 417 480 19,300 -2,607 Descending Los Angeles Center
Sun 12:32:09 AM 33.2158 -117.5325 137° Southeast 397 457 16,600 -2,262 Descending Los Angeles Center
Sun 12:33:10 AM 33.1275 -117.4597 145° Southeast 388 447 14,700 -2,262 Descending Los Angeles Center
Sun 12:34:11 AM 33.0414 -117.3931 147° Southeast 373 429 12,000 -2,237 Descending Los Angeles Center
Sun 12:35:08 AM 32.9667 -117.3333 146° Southeast 341 392 10,300 -1,538 Descending Southern California TRACON
Sun 12:36:08 AM 32.8833 -117.2667 146° Southeast 307 353 9,000 -1,500 Descending Southern California TRACON
Sun 12:37:08 AM 32.8500 -117.1833 115° Southeast 305 351 7,300 -1,350 Descending Southern California TRACON
Sun 12:38:08 AM 32.8000 -117.1000 126° Southeast 288 331 6,300 -1,150 Descending Southern California TRACON
Sun 12:39:08 AM 32.7667 -117.0167 115° Southeast 276 318 5,000 -650 Descending Southern California TRACON
Sun 12:40:08 AM 32.7500 -116.9333 103° East 211 243 5,000 -400 Level Southern California TRACON
Sun 12:41:08 AM 32.7000 -116.9333 180° South 188 216 4,200 -500 Descending Southern California TRACON
Sun 12:42:08 AM 32.6833 -116.9667 239° Southwest 192 221 4,000 -550 Descending Southern California TRACON
Sun 12:43:08 AM 32.6833 -117.0167 270° West 165 190 3,100 -850 Descending Southern California TRACON
Sun 12:44:08 AM 32.7000 -117.0667 292° West 167 192 2,300 -850 Descending Southern California TRACON
Sun 12:45:08 AM 32.7167 -117.1167 292° West 152 175 1,400 -900 Descending Southern California TRACON
Sun 12:46:08 AM 32.7333 -117.1500 301° West 132 152 500 -900 Descending Southern California TRACON

Login

Don't have an account? Register now (free) for customized features, flight alerts, and more!